Main page
METAR-TAF:

METAR-TAF

Airports :

Istanbul Atatürk, Turkey

Istanbul Atatürk Airport

latitude: 40-58N, longitude: 028-49E, elevation: 48 m

Current weather observation

The report was made 38 minutes ago, at 08:20 UTC
Wind 9 kt from the Northeast, varying between North and East/Northeast
Temperature 23°C
Humidity 38%
Pressure 1012 hPa
Visibility 10 km or more
no clouds below 1500 m and no cumulonimbus

METAR: LTBA 300820Z 04009KT 350V070 CAVOK 23/08 Q1012 NOSIG RMK RWY17L 03008KT 350V080 RWY05 03010KT RWY23 03010KT 360V070

Time: 11:58 (08:58 UTC)

Forecast

The report was made 4 hours and 18 minutes ago, at 04:40 UTC
Forecast valid from 30 at 06 UTC to 01 at 12 UTC
Wind 12 kt from the North/Northeast
Visibility 10 km or more
no clouds below 1500 m and no cumulonimbus

TAF: LTBA 300440Z 3006/0112 02012KT CAVOK

Weather observations and forecasts of more than 4000 airports (METAR and TAF reports).

The available stations are represented by yellow and red dots on the map.

Hover mouse over dot to see the name of the station.

Then click to see weather observations and forecasts.

To change the map : click on the green buttons with a black cross to zoom in, on the green button with a dash to zoom out, or on the green arrows for adjacent maps.


METAR-TAF: